»·PEaware :: N2U KSEA-KSFO

N2U :: KSEA-KSFO

FLIGHT INFORMATION

Flight Status: Arrived
Operator: Privately registered:
United States
More flights under this callsign
Pilot: Max W. (2591)
Aircraft: CESSNA 550 CITATION 2/S2/BRAVO
(C550)
More flights by this aircraft type
Origin: KSEA Seattle-Tacoma Intl
United States
Destination: KSFO San Francisco Intl
United States
More flights between these airports :: More routes between these airports
Route: +HAROB6 ERAVE Q1 ETCHY MLBEC BDEGA2
File this flight plan on PilotEdge
Remarks:
Altitude:
(Current/Filed)
43,000ft
Speed:
(Current/Filed)
450kts
Departed: 08-Jan-18 06:38 PM
Arrived: 08-Jan-18 08:48 PM
Distance/Time
Traveled:
589nm/2:10
Distance/Time
To Go:
Arrived

Flight Plot

Page will automatically refresh every two minutes.

Flight plan parsing failed; only flown route is shown


Map Options




Map Legend


Flown Route
Filed Route
Departure Airport
Arrival Airport
Navaid (VOR, NDB)
Fix

Horizontal Profiles

Position Reports

Time Latitude Longitude Heading Altitude Ground
Speed
08-Jan-18 18:09 47.435898 -122.304735 90 436ft 0kts
08-Jan-18 18:10 47.435898 -122.304735 90 436ft 0kts
08-Jan-18 18:11 47.435898 -122.304735 90 436ft 0kts
08-Jan-18 18:12 47.435898 -122.304735 90 436ft 0kts
08-Jan-18 18:13 47.435898 -122.304735 90 436ft 0kts
08-Jan-18 18:14 47.435898 -122.304735 90 436ft 0kts
08-Jan-18 18:15 47.435898 -122.304735 90 436ft 0kts
08-Jan-18 18:16 47.435898 -122.304735 90 436ft 0kts
08-Jan-18 18:17 47.435898 -122.304735 90 436ft 0kts
08-Jan-18 18:18 47.435898 -122.304735 90 436ft 0kts
08-Jan-18 18:19 47.435898 -122.304735 90 436ft 0kts
08-Jan-18 18:20 47.435898 -122.304735 90 436ft 0kts
08-Jan-18 18:21 47.435898 -122.304735 90 436ft 0kts
08-Jan-18 18:22 47.435898 -122.304735 90 436ft 0kts
08-Jan-18 18:23 47.435898 -122.304735 90 436ft 0kts
08-Jan-18 18:24 47.435898 -122.304734 90 436ft 0kts
08-Jan-18 18:25 47.435898 -122.304734 90 436ft 0kts
08-Jan-18 18:26 47.435898 -122.304734 90 436ft 0kts
08-Jan-18 18:27 47.435898 -122.304734 90 436ft 0kts
08-Jan-18 18:28 47.435898 -122.304729 90 436ft 0kts
08-Jan-18 18:29 47.436111 -122.304751 310 436ft 0kts
08-Jan-18 18:30 47.436112 -122.304754 310 436ft 0kts
08-Jan-18 18:31 47.436114 -122.304756 310 436ft 0kts
08-Jan-18 18:32 47.436115 -122.304759 310 436ft 0kts
08-Jan-18 18:33 47.436118 -122.304763 310 436ft 0kts
08-Jan-18 18:34 47.436191 -122.305766 279 436ft 14kts
08-Jan-18 18:35 47.440319 -122.306189 2 436ft 14kts
08-Jan-18 18:36 47.446995 -122.306161 359 436ft 16kts
08-Jan-18 18:37 47.451176 -122.306166 359 436ft 12kts
08-Jan-18 18:38 47.453629 -122.306141 358 436ft 10kts
08-Jan-18 18:39 47.457465 -122.306173 356 436ft 11kts
08-Jan-18 18:40 47.461670 -122.306160 359 436ft 10kts
08-Jan-18 18:41 47.462359 -122.306157 358 436ft 2kts
08-Jan-18 18:42 47.463431 -122.307512 246 436ft 8kts
08-Jan-18 18:43 47.463106 -122.307742 179 436ft 0kts
08-Jan-18 18:44 47.461174 -122.307749 179 436ft 61kts
08-Jan-18 18:45 47.428791 -122.307724 178 2246ft 127kts
08-Jan-18 18:46 47.393330 -122.309247 179 4857ft 117kts
08-Jan-18 18:47 47.361146 -122.309985 181 6869ft 136kts
08-Jan-18 18:48 47.326103 -122.313084 204 9494ft 113kts
08-Jan-18 18:49 47.314450 -122.367837 256 10866ft 187kts
08-Jan-18 18:50 47.307137 -122.455310 263 12286ft 251kts
08-Jan-18 18:51 47.319137 -122.567249 277 13869ft 297kts
08-Jan-18 18:52 47.383381 -122.658461 312 15044ft 336kts
08-Jan-18 18:53 47.463833 -122.685450 50 14991ft 353kts
08-Jan-18 18:54 47.435592 -122.581636 168 15052ft 284kts
08-Jan-18 18:55 47.363780 -122.611769 234 15089ft 294kts
08-Jan-18 18:56 47.333458 -122.726367 242 16044ft 302kts
08-Jan-18 18:57 47.300117 -122.841765 243 17841ft 298kts
08-Jan-18 18:58 47.267215 -122.957194 243 19646ft 314kts
08-Jan-18 18:59 47.221514 -123.065536 215 21456ft 315kts
08-Jan-18 19:00 47.151094 -123.141096 217 23234ft 312kts
08-Jan-18 19:01 47.082042 -123.216045 217 24930ft 305kts
08-Jan-18 19:02 47.014581 -123.288918 216 26628ft 295kts
08-Jan-18 19:03 46.949305 -123.359208 217 28028ft 292kts
08-Jan-18 19:04 46.874010 -123.400971 184 29036ft 309kts
08-Jan-18 19:05 46.788533 -123.397759 186 30035ft 306kts
08-Jan-18 19:06 46.703640 -123.395149 185 31035ft 302kts
08-Jan-18 19:07 46.620164 -123.392544 186 32029ft 298kts
08-Jan-18 19:08 46.537882 -123.391128 191 32900ft 292kts
08-Jan-18 19:09 46.459062 -123.416525 199 33604ft 289kts
08-Jan-18 19:10 46.382035 -123.447295 199 34300ft 284kts
08-Jan-18 19:11 46.302841 -123.479449 199 33380ft 328kts
08-Jan-18 19:12 46.213319 -123.517149 199 32999ft 334kts
08-Jan-18 19:13 46.121391 -123.534413 180 33002ft 344kts
08-Jan-18 19:14 46.025963 -123.519723 180 33002ft 343kts
08-Jan-18 19:15 45.930864 -123.507090 181 32990ft 343kts
08-Jan-18 19:16 45.835447 -123.494852 181 32990ft 343kts
08-Jan-18 19:17 45.740300 -123.482755 181 32993ft 343kts
08-Jan-18 19:18 45.645162 -123.470710 181 32994ft 344kts
08-Jan-18 19:19 45.549469 -123.458636 181 32994ft 344kts
08-Jan-18 19:20 45.454214 -123.446658 181 32993ft 344kts
08-Jan-18 19:21 45.358481 -123.434663 181 32995ft 344kts
08-Jan-18 19:22 45.262995 -123.422740 181 32996ft 345kts
08-Jan-18 19:23 45.167373 -123.410838 181 32995ft 345kts
08-Jan-18 19:24 45.071396 -123.398933 181 32993ft 345kts
08-Jan-18 19:25 44.975664 -123.387095 181 32990ft 345kts
08-Jan-18 19:26 44.879850 -123.375291 181 32987ft 345kts
08-Jan-18 19:27 44.800330 -123.365525 181 32988ft 344kts
08-Jan-18 19:28 44.688940 -123.351891 181 32992ft 345kts
08-Jan-18 19:29 44.608991 -123.342136 181 32996ft 345kts
08-Jan-18 19:30 44.497617 -123.328591 181 32999ft 344kts
08-Jan-18 19:31 44.417985 -123.324735 184 32998ft 342kts
08-Jan-18 19:32 44.306935 -123.321031 183 32990ft 342kts
08-Jan-18 19:33 44.227640 -123.317940 183 32984ft 342kts
08-Jan-18 19:34 44.116223 -123.313518 183 32980ft 342kts
08-Jan-18 19:35 44.036901 -123.310368 183 32979ft 342kts
08-Jan-18 19:36 43.941521 -123.306591 183 32977ft 342kts
08-Jan-18 19:37 43.846563 -123.302839 183 32975ft 341kts
08-Jan-18 19:38 43.751635 -123.299103 183 32973ft 341kts
08-Jan-18 19:39 43.656465 -123.295369 183 32971ft 341kts
08-Jan-18 19:40 43.561569 -123.291657 183 32970ft 341kts
08-Jan-18 19:41 43.466400 -123.287947 183 32970ft 341kts
08-Jan-18 19:42 43.371479 -123.284257 183 32969ft 342kts
08-Jan-18 19:43 43.276471 -123.280575 182 32969ft 341kts
08-Jan-18 19:44 43.181236 -123.276897 182 32969ft 342kts
08-Jan-18 19:45 43.086139 -123.273236 182 32961ft 342kts
08-Jan-18 19:46 42.990716 -123.269572 182 32959ft 342kts
08-Jan-18 19:47 42.895535 -123.265928 182 32957ft 342kts
08-Jan-18 19:48 42.800413 -123.262299 182 32955ft 342kts
08-Jan-18 19:49 42.704922 -123.258669 182 32952ft 342kts
08-Jan-18 19:50 42.609639 -123.255056 182 32951ft 343kts
08-Jan-18 19:51 42.514755 -123.251470 182 32951ft 343kts
08-Jan-18 19:52 42.419599 -123.247917 182 32954ft 342kts
08-Jan-18 19:53 42.324430 -123.244405 182 32960ft 342kts
08-Jan-18 19:54 42.229026 -123.240893 181 32963ft 342kts
08-Jan-18 19:55 42.133979 -123.237404 181 32965ft 342kts
08-Jan-18 19:56 42.038644 -123.233914 181 32967ft 342kts
08-Jan-18 19:57 41.943626 -123.230447 181 32969ft 341kts
08-Jan-18 19:58 41.848725 -123.226992 181 32971ft 341kts
08-Jan-18 19:59 41.753585 -123.223542 181 32971ft 341kts
08-Jan-18 20:00 41.658835 -123.220115 181 32987ft 341kts
08-Jan-18 20:01 41.563729 -123.216752 181 32983ft 341kts
08-Jan-18 20:02 41.468902 -123.213475 181 32980ft 341kts
08-Jan-18 20:03 41.374070 -123.210202 181 32978ft 341kts
08-Jan-18 20:04 41.278938 -123.207380 181 32968ft 341kts
08-Jan-18 20:05 41.184177 -123.205025 181 32976ft 341kts
08-Jan-18 20:06 41.089061 -123.202627 181 32976ft 341kts
08-Jan-18 20:07 40.994102 -123.200233 181 32977ft 342kts
08-Jan-18 20:08 40.899047 -123.197841 181 32968ft 342kts
08-Jan-18 20:09 40.804639 -123.195473 181 32968ft 342kts
08-Jan-18 20:10 40.708618 -123.193072 181 32968ft 342kts
08-Jan-18 20:11 40.613307 -123.190695 181 32969ft 342kts
08-Jan-18 20:12 40.518284 -123.188331 181 32983ft 341kts
08-Jan-18 20:13 40.423367 -123.185977 181 32998ft 341kts
08-Jan-18 20:14 40.328145 -123.183623 181 33000ft 341kts
08-Jan-18 20:15 40.233185 -123.181281 181 32996ft 341kts
08-Jan-18 20:16 40.138001 -123.178941 181 32995ft 341kts
08-Jan-18 20:17 40.043297 -123.174152 176 32995ft 342kts
08-Jan-18 20:18 39.948669 -123.155588 174 32997ft 343kts
08-Jan-18 20:19 39.854304 -123.137718 175 32998ft 343kts
08-Jan-18 20:20 39.759659 -123.120167 175 32990ft 343kts
08-Jan-18 20:21 39.665309 -123.102770 175 32984ft 343kts
08-Jan-18 20:22 39.570920 -123.085424 175 32983ft 343kts
08-Jan-18 20:23 39.476010 -123.068040 175 32780ft 347kts
08-Jan-18 20:24 39.379086 -123.050334 174 32090ft 355kts
08-Jan-18 20:25 39.281182 -123.032442 174 31394ft 356kts
08-Jan-18 20:26 39.183226 -123.014505 174 30690ft 352kts
08-Jan-18 20:27 39.086164 -122.996887 174 29991ft 353kts
08-Jan-18 20:28 38.987014 -122.979143 174 29292ft 363kts
08-Jan-18 20:29 38.886416 -122.961021 173 28595ft 367kts
08-Jan-18 20:30 38.786983 -122.932890 169 27892ft 348kts
08-Jan-18 20:31 38.692016 -122.904798 169 27191ft 351kts
08-Jan-18 20:32 38.596889 -122.876736 169 26492ft 351kts
08-Jan-18 20:33 38.501011 -122.848508 168 25790ft 359kts
08-Jan-18 20:34 38.406697 -122.820769 168 24996ft 342kts
08-Jan-18 20:35 38.311888 -122.792962 168 24196ft 346kts
08-Jan-18 20:36 38.218087 -122.765547 168 22966ft 350kts
08-Jan-18 20:37 38.128591 -122.739532 168 20675ft 330kts
08-Jan-18 20:38 38.039658 -122.713757 168 18372ft 322kts
08-Jan-18 20:39 37.955501 -122.689366 168 16073ft 299kts
08-Jan-18 20:40 37.877681 -122.656099 152 13778ft 296kts
08-Jan-18 20:41 37.809789 -122.602942 150 11482ft 284kts
08-Jan-18 20:42 37.750473 -122.552723 145 9190ft 267kts
08-Jan-18 20:43 37.718801 -122.471445 110 6900ft 259kts
08-Jan-18 20:44 37.700133 -122.388598 109 4604ft 232kts
08-Jan-18 20:45 37.679943 -122.308275 110 3997ft 244kts
08-Jan-18 20:46 37.660168 -122.231332 110 4001ft 238kts
08-Jan-18 20:47 37.640782 -122.156700 109 2572ft 233kts
08-Jan-18 20:48 37.597830 -122.131044 205 2039ft 212kts
08-Jan-18 20:49 37.551639 -122.180158 253 1900ft 220kts
08-Jan-18 20:50 37.563438 -122.235725 310 1806ft 160kts
08-Jan-18 20:51 37.585105 -122.283338 294 1521ft 148kts
08-Jan-18 20:52 37.600612 -122.327043 298 586ft 137kts
08-Jan-18 20:53 37.617185 -122.365772 295 16ft 97kts
08-Jan-18 20:54 37.623633 -122.380850 307 16ft 31kts
08-Jan-18 20:55 37.625738 -122.382541 291 16ft 13kts
08-Jan-18 20:56 37.627832 -122.384548 242 16ft 0kts
08-Jan-18 20:57 37.627825 -122.384564 243 16ft 0kts
08-Jan-18 20:58 37.627824 -122.384568 245 16ft 0kts
08-Jan-18 20:59 37.627824 -122.384568 245 16ft 0kts
08-Jan-18 21:00 37.627824 -122.384568 245 16ft 0kts
08-Jan-18 21:01 37.627824 -122.384568 245 16ft 0kts

Navigation Log

Ident Type
Flight plan parsing failed, navigation log unavailable